Chaud Clapier (26) - G

Date : 09/06/2012
Distance : 2,400 km

Place Nom Licence Catégorie Club Temps min/km CN à J-60 Points Différence Nouveau CN
1 BUHRE Anders 7430 H70 0615AZ 0:24:48 10'20 5712 6555 +843 6305
2 SINIBALDI Marc 1347 H70 3801RA 0:28:16 11'46 4386 5751 +1365 5147
3 DEVILLE Nelly 2401 D60 5402LO 0:32:08 13'23 4935 5059 +124 4924
4 GANDON J-Claude 249 H70 6906RA 0:32:23 13'29 4163 5020 +857 4672
5 ANNE Brigitte 1672 D60 0111RA 0:32:44 13'38 3424 4966 +1542 3986
6 DIEUDONNE Madeleine 1380 D65 7808IF 0:33:42 14'02 4182 4824 +642 4397
7 ILLES Dominique 3515 D60 4802LR 0:35:37 14'50 3701 4564 +863 4012
8 DUBROCA Monique 633 D65 3308AQ 0:36:03 15'01 4497 4509 +12 4846
9 VOGT Christiane 2557 D65 6709AL 0:36:37 15'15 3545 4440 +895 4013
10 ROBERT Francoise 6491 D60 6913RA 0:38:46 16'09 4524 4193 -331 4475
11 BERGER M-Jose 7182 D60 5703LO 0:39:05 16'17 3893 4159 +266 4040
12 RAUCOULES Christine 258 D60 3811RA 0:39:48 16'35 2916 4084 +1168 3338
13 BLASCO Nicole 395 D65 2406AQ 0:40:14 16'45 3914 4040 +126 3941
14 ABISSE Gisele 701 D65 2508FC 0:40:52 17'01 3543 3978 +435 3729
15 THIEBAULT Monique 5033 D65 3318AQ 0:41:55 17'27 3603 3878 +275 3841
16 ANFOSSI Giuseppe 14235 H70 0615AZ 0:42:17 17'37 2321 3845 +1524 3230
17 HELIOT Claude 2349 H70 6906RA 0:42:23 17'39 3108 3835 +727 3162
18 MONTANARI Colette 2533 D60 5703LO 0:43:26 18'05 3496 3743 +247 3785
19 CHALOPIN Catherine 3674 D60 2105BO 0:46:47 19'29 3898 3475 -423 3898
20 GROSJEAN A-Marie 12059 D70 6913RA 0:49:07 20'27 2838 3310 +472 2999
21 TESTOUD Philippe 935 H70 7707IF 0:50:02 20'50 3690 3249 -441 3690
22 LARMINACH Andre 646 H70 3308AQ 0:50:55 21'12 4635 3193 -1442 4762
23 COULON Annick 10073 D60 0615AZ 0:51:36 21'30 3754 3150 -604 3792
24 BAUDOIN Annie 16634 D60 0615AZ 0:51:54 21'37 3192 3132 -60 3545
25 JEANPIERRE M-Therese 3302 D65 8809LO 0:52:28 21'51 3204 3098 -106 3222
26 BOUILLET Geneviève 8944 D60 3811RA 0:52:53 22'02 2282 3074 +792 2833
27 BOUCHERLE Ghislaine 4479 D60 3801RA 0:53:54 22'27 3491 3016 -475 3299
28 THIEBAULT M-Paule 4490 D60 6804AL 0:55:58 23'19 2337 2905 +568 2503
29 PROST Gisele 2182 D60 9307IF 0:56:54 23'42 2876 2857 -19 2814
30 GEOFFROY Nicole 6443 D60 3408LR 0:57:02 23'45 3216 2850 -366 3253
31 LEMERCIER Jocelyne 2474 D60 5407LO 0:57:47 24'04 3183 2813 -370 3276
32 BARRAL Michele 7422 D60 4601MP 0:58:06 24'12 2565 2798 +233 2667
33 PROST Daniel 2181 H70 9307IF 0:59:46 24'54 2898 2720 -178 3046
34 BOCHET Roland 512 H70 3408LR 1:00:36 25'15 1971 2683 +712 2424
35 BRUNEL Marie-Jo 8761 D60 8903BO 1:01:36 25'40 3830 2639 -1191 3896
36 WOEHRLE Gilbert 370 H70 6803AL 1:02:33 26'03 2797 2599 -198 3147
37 POGU Paulette 4671 D60 5402LO 1:04:00 26'40 3172 2540 -632 3240
38 DODIN Genevieve 4392 D60 8809LO 1:10:16 29'16 2505 2313 -192 2588
39 THIEVENAZ Francoise 19672 D60 3811RA 1:12:05 30'02 0 2255 2052
40 PEETERS Simone 295 D70 7305RA 1:15:58 31'39 2142 2140 -2 2135
41 BASTIEN-FATH Nicole 8954 D65 5402LO 1:20:30 33'32 2735 2019 -716 2735
42 LUDEWIG-JAMES Carol 15894 D70 5907NO 1:30:59 37'54 2406 1787 -619 2388